sensor_id;sensor_type;location;lat;lon;timestamp;P1;durP1;ratioP1;P2;durP2;ratioP2
56037;SDS011;41907;47.848;9.000;2022-09-13T00:00:24;1.92;;;1.60;;
56037;SDS011;41907;47.848;9.000;2022-09-13T00:02:49;2.13;;;1.67;;
56037;SDS011;41907;47.848;9.000;2022-09-13T00:05:15;2.17;;;1.10;;
56037;SDS011;41907;47.848;9.000;2022-09-13T00:07:41;1.45;;;1.35;;
56037;SDS011;41907;47.848;9.000;2022-09-13T00:10:06;2.50;;;1.60;;
56037;SDS011;41907;47.848;9.000;2022-09-13T00:12:32;2.53;;;1.80;;
56037;SDS011;41907;47.848;9.000;2022-09-13T00:14:57;2.20;;;1.83;;
56037;SDS011;41907;47.848;9.000;2022-09-13T00:17:22;3.63;;;1.60;;
56037;SDS011;41907;47.848;9.000;2022-09-13T00:19:48;1.67;;;1.27;;
56037;SDS011;41907;47.848;9.000;2022-09-13T00:22:13;2.70;;;1.50;;
56037;SDS011;41907;47.848;9.000;2022-09-13T00:24:38;2.92;;;1.80;;
56037;SDS011;41907;47.848;9.000;2022-09-13T00:27:04;1.48;;;1.30;;
56037;SDS011;41907;47.848;9.000;2022-09-13T00:29:29;2.13;;;1.80;;
56037;SDS011;41907;47.848;9.000;2022-09-13T00:31:55;1.42;;;1.20;;
56037;SDS011;41907;47.848;9.000;2022-09-13T00:34:20;2.35;;;1.60;;
56037;SDS011;41907;47.848;9.000;2022-09-13T00:36:45;1.75;;;1.45;;
56037;SDS011;41907;47.848;9.000;2022-09-13T00:39:11;1.50;;;1.40;;
56037;SDS011;41907;47.848;9.000;2022-09-13T00:41:36;1.92;;;1.50;;
56037;SDS011;41907;47.848;9.000;2022-09-13T00:44:02;2.13;;;1.40;;
56037;SDS011;41907;47.848;9.000;2022-09-13T00:51:33;1.52;;;1.35;;
56037;SDS011;41907;47.848;9.000;2022-09-13T00:53:58;1.38;;;1.10;;
56037;SDS011;41907;47.848;9.000;2022-09-13T00:56:28;1.55;;;1.42;;
56037;SDS011;41907;47.848;9.000;2022-09-13T00:59:02;1.35;;;1.25;;
56037;SDS011;41907;47.848;9.000;2022-09-13T01:01:35;5.47;;;1.38;;
56037;SDS011;41907;47.848;9.000;2022-09-13T01:04:05;4.22;;;1.48;;
56037;SDS011;41907;47.848;9.000;2022-09-13T01:06:32;1.85;;;1.50;;
56037;SDS011;41907;47.848;9.000;2022-09-13T01:09:01;1.77;;;1.38;;
56037;SDS011;41907;47.848;9.000;2022-09-13T01:11:29;2.10;;;1.38;;
56037;SDS011;41907;47.848;9.000;2022-09-13T01:13:56;4.50;;;1.50;;
56037;SDS011;41907;47.848;9.000;2022-09-13T01:16:22;1.30;;;1.15;;
56037;SDS011;41907;47.848;9.000;2022-09-13T01:18:48;1.60;;;1.30;;
56037;SDS011;41907;47.848;9.000;2022-09-13T01:41:08;2.78;;;1.65;;
56037;SDS011;41907;47.848;9.000;2022-09-13T01:44:03;1.80;;;1.50;;
56037;SDS011;41907;47.848;9.000;2022-09-13T01:52:06;1.60;;;1.50;;
56037;SDS011;41907;47.848;9.000;2022-09-13T01:59:52;3.25;;;1.80;;
56037;SDS011;41907;47.848;9.000;2022-09-13T02:02:32;2.22;;;1.63;;
56037;SDS011;41907;47.848;9.000;2022-09-13T02:05:21;3.70;;;2.15;;
56037;SDS011;41907;47.848;9.000;2022-09-13T02:07:56;5.20;;;2.00;;
56037;SDS011;41907;47.848;9.000;2022-09-13T02:10:48;1.70;;;1.60;;
56037;SDS011;41907;47.848;9.000;2022-09-13T02:13:25;2.53;;;1.85;;
56037;SDS011;41907;47.848;9.000;2022-09-13T02:15:59;1.88;;;1.55;;
56037;SDS011;41907;47.848;9.000;2022-09-13T02:18:39;2.20;;;1.73;;
56037;SDS011;41907;47.848;9.000;2022-09-13T02:21:10;1.83;;;1.60;;
56037;SDS011;41907;47.848;9.000;2022-09-13T02:23:41;2.65;;;1.48;;
56037;SDS011;41907;47.848;9.000;2022-09-13T02:26:11;3.45;;;1.42;;
56037;SDS011;41907;47.848;9.000;2022-09-13T02:28:40;2.65;;;1.42;;
56037;SDS011;41907;47.848;9.000;2022-09-13T02:31:11;2.35;;;1.42;;
56037;SDS011;41907;47.848;9.000;2022-09-13T02:33:43;3.40;;;1.80;;
56037;SDS011;41907;47.848;9.000;2022-09-13T02:36:27;2.10;;;1.90;;
56037;SDS011;41907;47.848;9.000;2022-09-13T02:38:56;1.73;;;1.60;;
56037;SDS011;41907;47.848;9.000;2022-09-13T02:44:14;2.22;;;1.73;;
56037;SDS011;41907;47.848;9.000;2022-09-13T02:52:25;2.58;;;1.45;;
56037;SDS011;41907;47.848;9.000;2022-09-13T02:57:32;3.90;;;2.10;;
56037;SDS011;41907;47.848;9.000;2022-09-13T03:00:05;5.93;;;1.77;;
56037;SDS011;41907;47.848;9.000;2022-09-13T03:02:31;4.85;;;1.90;;
56037;SDS011;41907;47.848;9.000;2022-09-13T03:05:01;2.65;;;1.85;;
56037;SDS011;41907;47.848;9.000;2022-09-13T03:07:27;3.55;;;2.45;;
56037;SDS011;41907;47.848;9.000;2022-09-13T03:09:58;3.50;;;1.45;;
56037;SDS011;41907;47.848;9.000;2022-09-13T03:15:23;1.90;;;1.42;;
56037;SDS011;41907;47.848;9.000;2022-09-13T03:31:45;2.05;;;1.30;;
56037;SDS011;41907;47.848;9.000;2022-09-13T03:39:59;3.47;;;1.58;;
56037;SDS011;41907;47.848;9.000;2022-09-13T03:45:34;2.58;;;1.73;;
56037;SDS011;41907;47.848;9.000;2022-09-13T03:48:03;2.83;;;1.70;;
56037;SDS011;41907;47.848;9.000;2022-09-13T03:50:31;3.40;;;1.70;;
56037;SDS011;41907;47.848;9.000;2022-09-13T03:52:59;2.28;;;1.67;;
56037;SDS011;41907;47.848;9.000;2022-09-13T03:55:29;3.40;;;1.45;;
56037;SDS011;41907;47.848;9.000;2022-09-13T03:57:58;3.65;;;1.60;;
56037;SDS011;41907;47.848;9.000;2022-09-13T04:00:23;2.28;;;1.30;;
56037;SDS011;41907;47.848;9.000;2022-09-13T04:02:48;2.08;;;1.77;;
56037;SDS011;41907;47.848;9.000;2022-09-13T04:05:15;3.08;;;1.60;;
56037;SDS011;41907;47.848;9.000;2022-09-13T04:07:40;3.30;;;1.70;;
56037;SDS011;41907;47.848;9.000;2022-09-13T04:10:06;2.35;;;1.50;;
56037;SDS011;41907;47.848;9.000;2022-09-13T04:12:32;1.98;;;1.42;;
56037;SDS011;41907;47.848;9.000;2022-09-13T04:14:57;2.35;;;1.60;;
56037;SDS011;41907;47.848;9.000;2022-09-13T04:17:23;1.80;;;1.65;;
56037;SDS011;41907;47.848;9.000;2022-09-13T04:19:48;2.75;;;1.75;;
56037;SDS011;41907;47.848;9.000;2022-09-13T04:22:13;5.15;;;1.50;;
56037;SDS011;41907;47.848;9.000;2022-09-13T04:24:39;2.58;;;1.30;;
56037;SDS011;41907;47.848;9.000;2022-09-13T04:27:05;2.97;;;1.67;;
56037;SDS011;41907;47.848;9.000;2022-09-13T04:29:31;1.77;;;1.52;;
56037;SDS011;41907;47.848;9.000;2022-09-13T04:31:57;3.28;;;1.50;;
56037;SDS011;41907;47.848;9.000;2022-09-13T04:34:22;9.63;;;1.95;;
56037;SDS011;41907;47.848;9.000;2022-09-13T04:36:48;4.18;;;1.60;;
56037;SDS011;41907;47.848;9.000;2022-09-13T04:39:16;1.65;;;1.55;;
56037;SDS011;41907;47.848;9.000;2022-09-13T04:41:42;4.82;;;2.67;;
56037;SDS011;41907;47.848;9.000;2022-09-13T04:44:10;4.75;;;2.65;;
56037;SDS011;41907;47.848;9.000;2022-09-13T04:46:35;5.10;;;1.83;;
56037;SDS011;41907;47.848;9.000;2022-09-13T04:49:01;2.42;;;2.08;;
56037;SDS011;41907;47.848;9.000;2022-09-13T04:51:26;2.85;;;1.48;;
56037;SDS011;41907;47.848;9.000;2022-09-13T04:53:52;1.48;;;1.38;;
56037;SDS011;41907;47.848;9.000;2022-09-13T04:56:19;2.33;;;1.75;;
56037;SDS011;41907;47.848;9.000;2022-09-13T04:58:45;6.63;;;1.90;;
56037;SDS011;41907;47.848;9.000;2022-09-13T05:01:10;2.15;;;1.52;;
56037;SDS011;41907;47.848;9.000;2022-09-13T05:03:36;2.97;;;1.65;;
56037;SDS011;41907;47.848;9.000;2022-09-13T05:06:05;2.35;;;1.63;;
56037;SDS011;41907;47.848;9.000;2022-09-13T05:08:41;2.08;;;1.50;;
56037;SDS011;41907;47.848;9.000;2022-09-13T05:11:07;1.85;;;1.60;;
56037;SDS011;41907;47.848;9.000;2022-09-13T05:13:33;2.28;;;1.77;;
56037;SDS011;41907;47.848;9.000;2022-09-13T05:16:02;2.15;;;1.88;;
56037;SDS011;41907;47.848;9.000;2022-09-13T05:18:30;4.80;;;1.80;;
56037;SDS011;41907;47.848;9.000;2022-09-13T05:20:57;2.95;;;1.73;;
56037;SDS011;41907;47.848;9.000;2022-09-13T05:23:24;2.08;;;1.77;;
56037;SDS011;41907;47.848;9.000;2022-09-13T05:25:57;3.90;;;2.47;;
56037;SDS011;41907;47.848;9.000;2022-09-13T05:28:28;3.28;;;2.25;;
56037;SDS011;41907;47.848;9.000;2022-09-13T05:33:25;3.05;;;1.90;;
56037;SDS011;41907;47.848;9.000;2022-09-13T05:35:52;2.30;;;2.10;;
56037;SDS011;41907;47.848;9.000;2022-09-13T05:38:18;4.68;;;2.38;;
56037;SDS011;41907;47.848;9.000;2022-09-13T05:40:44;2.65;;;2.30;;
56037;SDS011;41907;47.848;9.000;2022-09-13T05:43:09;3.67;;;2.63;;
56037;SDS011;41907;47.848;9.000;2022-09-13T05:45:34;4.97;;;2.50;;
56037;SDS011;41907;47.848;9.000;2022-09-13T05:48:00;3.22;;;2.38;;
56037;SDS011;41907;47.848;9.000;2022-09-13T05:50:26;2.25;;;2.03;;
56037;SDS011;41907;47.848;9.000;2022-09-13T05:52:51;3.55;;;2.35;;
56037;SDS011;41907;47.848;9.000;2022-09-13T05:55:17;2.92;;;1.90;;
56037;SDS011;41907;47.848;9.000;2022-09-13T05:57:43;1.70;;;1.60;;
56037;SDS011;41907;47.848;9.000;2022-09-13T06:00:09;3.15;;;1.40;;
56037;SDS011;41907;47.848;9.000;2022-09-13T06:02:34;2.08;;;1.20;;
56037;SDS011;41907;47.848;9.000;2022-09-13T06:05:00;4.20;;;1.80;;
56037;SDS011;41907;47.848;9.000;2022-09-13T06:07:25;2.80;;;1.40;;
56037;SDS011;41907;47.848;9.000;2022-09-13T06:09:52;1.90;;;1.45;;
56037;SDS011;41907;47.848;9.000;2022-09-13T06:12:18;1.20;;;1.10;;
56037;SDS011;41907;47.848;9.000;2022-09-13T06:14:43;1.52;;;1.10;;
56037;SDS011;41907;47.848;9.000;2022-09-13T06:17:08;1.90;;;1.08;;
56037;SDS011;41907;47.848;9.000;2022-09-13T06:19:34;1.20;;;1.10;;
56037;SDS011;41907;47.848;9.000;2022-09-13T06:21:59;1.30;;;1.20;;
56037;SDS011;41907;47.848;9.000;2022-09-13T06:24:24;0.90;;;0.90;;
56037;SDS011;41907;47.848;9.000;2022-09-13T06:26:50;2.03;;;1.33;;
56037;SDS011;41907;47.848;9.000;2022-09-13T06:29:15;1.33;;;1.23;;
56037;SDS011;41907;47.848;9.000;2022-09-13T06:31:40;2.22;;;1.20;;
56037;SDS011;41907;47.848;9.000;2022-09-13T06:34:09;3.05;;;1.33;;
56037;SDS011;41907;47.848;9.000;2022-09-13T06:36:42;1.38;;;1.27;;
56037;SDS011;41907;47.848;9.000;2022-09-13T06:39:07;1.40;;;1.13;;
56037;SDS011;41907;47.848;9.000;2022-09-13T06:41:33;3.10;;;1.17;;
56037;SDS011;41907;47.848;9.000;2022-09-13T06:43:59;1.20;;;1.10;;
56037;SDS011;41907;47.848;9.000;2022-09-13T06:46:26;1.00;;;1.00;;
56037;SDS011;41907;47.848;9.000;2022-09-13T06:48:53;1.27;;;1.13;;
56037;SDS011;41907;47.848;9.000;2022-09-13T06:51:22;1.02;;;1.02;;
56037;SDS011;41907;47.848;9.000;2022-09-13T06:53:49;2.88;;;1.30;;
56037;SDS011;41907;47.848;9.000;2022-09-13T06:58:43;1.70;;;1.60;;
56037;SDS011;41907;47.848;9.000;2022-09-13T07:03:39;1.38;;;1.20;;
56037;SDS011;41907;47.848;9.000;2022-09-13T07:06:26;2.42;;;1.42;;
56037;SDS011;41907;47.848;9.000;2022-09-13T07:08:53;1.65;;;1.25;;
56037;SDS011;41907;47.848;9.000;2022-09-13T07:11:21;1.20;;;1.13;;
56037;SDS011;41907;47.848;9.000;2022-09-13T07:13:55;2.95;;;1.52;;
56037;SDS011;41907;47.848;9.000;2022-09-13T07:16:22;1.35;;;1.20;;
56037;SDS011;41907;47.848;9.000;2022-09-13T07:18:50;1.77;;;1.40;;
56037;SDS011;41907;47.848;9.000;2022-09-13T07:21:16;2.75;;;1.42;;
56037;SDS011;41907;47.848;9.000;2022-09-13T07:23:42;2.67;;;1.40;;
56037;SDS011;41907;47.848;9.000;2022-09-13T07:26:08;1.60;;;1.33;;
56037;SDS011;41907;47.848;9.000;2022-09-13T07:28:35;3.08;;;1.17;;
56037;SDS011;41907;47.848;9.000;2022-09-13T07:31:05;1.50;;;1.27;;
56037;SDS011;41907;47.848;9.000;2022-09-13T07:33:37;2.75;;;1.50;;
56037;SDS011;41907;47.848;9.000;2022-09-13T07:36:03;2.08;;;1.40;;
56037;SDS011;41907;47.848;9.000;2022-09-13T07:38:33;1.98;;;1.67;;
56037;SDS011;41907;47.848;9.000;2022-09-13T07:41:03;7.05;;;4.00;;
56037;SDS011;41907;47.848;9.000;2022-09-13T07:43:30;4.32;;;3.67;;
56037;SDS011;41907;47.848;9.000;2022-09-13T07:46:06;3.65;;;2.97;;
56037;SDS011;41907;47.848;9.000;2022-09-13T07:48:37;4.43;;;2.88;;
56037;SDS011;41907;47.848;9.000;2022-09-13T07:51:11;5.63;;;2.40;;
56037;SDS011;41907;47.848;9.000;2022-09-13T07:53:41;2.78;;;2.00;;
56037;SDS011;41907;47.848;9.000;2022-09-13T07:56:09;3.85;;;1.80;;
56037;SDS011;41907;47.848;9.000;2022-09-13T07:58:37;2.50;;;1.60;;
56037;SDS011;41907;47.848;9.000;2022-09-13T08:01:06;3.13;;;2.20;;
56037;SDS011;41907;47.848;9.000;2022-09-13T08:03:34;3.90;;;2.60;;
56037;SDS011;41907;47.848;9.000;2022-09-13T08:06:00;6.72;;;2.75;;
56037;SDS011;41907;47.848;9.000;2022-09-13T08:08:27;4.32;;;3.00;;
56037;SDS011;41907;47.848;9.000;2022-09-13T08:10:52;4.45;;;3.17;;
56037;SDS011;41907;47.848;9.000;2022-09-13T08:13:18;7.03;;;4.57;;
56037;SDS011;41907;47.848;9.000;2022-09-13T08:15:43;6.38;;;4.47;;
56037;SDS011;41907;47.848;9.000;2022-09-13T08:18:09;6.00;;;4.13;;
56037;SDS011;41907;47.848;9.000;2022-09-13T08:20:35;8.32;;;4.75;;
56037;SDS011;41907;47.848;9.000;2022-09-13T08:23:02;8.48;;;5.85;;
56037;SDS011;41907;47.848;9.000;2022-09-13T08:25:30;9.65;;;4.97;;
56037;SDS011;41907;47.848;9.000;2022-09-13T08:28:09;7.88;;;5.28;;
56037;SDS011;41907;47.848;9.000;2022-09-13T08:30:39;6.10;;;3.55;;
56037;SDS011;41907;47.848;9.000;2022-09-13T08:33:06;1.70;;;1.60;;
56037;SDS011;41907;47.848;9.000;2022-09-13T08:35:31;1.60;;;1.50;;
56037;SDS011;41907;47.848;9.000;2022-09-13T08:37:58;1.83;;;1.48;;
56037;SDS011;41907;47.848;9.000;2022-09-13T08:40:24;2.80;;;1.38;;
56037;SDS011;41907;47.848;9.000;2022-09-13T08:45:21;1.50;;;1.40;;
56037;SDS011;41907;47.848;9.000;2022-09-13T08:47:50;3.53;;;1.40;;
56037;SDS011;41907;47.848;9.000;2022-09-13T08:50:27;2.22;;;1.38;;
56037;SDS011;41907;47.848;9.000;2022-09-13T09:06:30;1.30;;;1.13;;
56037;SDS011;41907;47.848;9.000;2022-09-13T09:09:03;1.60;;;1.00;;
56037;SDS011;41907;47.848;9.000;2022-09-13T09:11:36;1.52;;;1.30;;
56037;SDS011;41907;47.848;9.000;2022-09-13T09:17:01;2.40;;;1.45;;
56037;SDS011;41907;47.848;9.000;2022-09-13T09:19:35;2.47;;;1.92;;
56037;SDS011;41907;47.848;9.000;2022-09-13T09:24:35;5.38;;;2.65;;
56037;SDS011;41907;47.848;9.000;2022-09-13T09:27:08;4.65;;;3.22;;
56037;SDS011;41907;47.848;9.000;2022-09-13T09:29:42;7.82;;;5.45;;
56037;SDS011;41907;47.848;9.000;2022-09-13T09:37:39;2.35;;;1.33;;
56037;SDS011;41907;47.848;9.000;2022-09-13T09:40:09;1.50;;;1.40;;
56037;SDS011;41907;47.848;9.000;2022-09-13T09:42:42;2.22;;;1.60;;
56037;SDS011;41907;47.848;9.000;2022-09-13T09:45:18;2.58;;;1.20;;
56037;SDS011;41907;47.848;9.000;2022-09-13T09:47:50;1.25;;;1.00;;
56037;SDS011;41907;47.848;9.000;2022-09-13T09:50:18;1.00;;;1.00;;
56037;SDS011;41907;47.848;9.000;2022-09-13T09:52:56;1.30;;;1.17;;
56037;SDS011;41907;47.848;9.000;2022-09-13T09:57:58;1.73;;;1.00;;
56037;SDS011;41907;47.848;9.000;2022-09-13T10:00:30;1.75;;;1.40;;
56037;SDS011;41907;47.848;9.000;2022-09-13T10:03:00;2.00;;;1.80;;
56037;SDS011;41907;47.848;9.000;2022-09-13T10:05:28;3.95;;;2.25;;
56037;SDS011;41907;47.848;9.000;2022-09-13T10:07:57;1.83;;;1.70;;
56037;SDS011;41907;47.848;9.000;2022-09-13T10:13:03;2.05;;;1.00;;
56037;SDS011;41907;47.848;9.000;2022-09-13T10:15:32;3.55;;;1.17;;
56037;SDS011;41907;47.848;9.000;2022-09-13T10:18:00;1.95;;;1.40;;
56037;SDS011;41907;47.848;9.000;2022-09-13T10:20:38;2.03;;;1.00;;
56037;SDS011;41907;47.848;9.000;2022-09-13T10:23:10;1.38;;;1.27;;
56037;SDS011;41907;47.848;9.000;2022-09-13T10:25:39;1.95;;;0.90;;
56037;SDS011;41907;47.848;9.000;2022-09-13T10:28:11;2.13;;;1.30;;
56037;SDS011;41907;47.848;9.000;2022-09-13T10:30:56;2.83;;;1.00;;
56037;SDS011;41907;47.848;9.000;2022-09-13T10:33:30;2.08;;;1.38;;
56037;SDS011;41907;47.848;9.000;2022-09-13T10:36:00;1.77;;;1.30;;
56037;SDS011;41907;47.848;9.000;2022-09-13T10:38:33;1.13;;;0.93;;
56037;SDS011;41907;47.848;9.000;2022-09-13T10:41:02;2.95;;;1.85;;
56037;SDS011;41907;47.848;9.000;2022-09-13T10:43:32;5.68;;;3.50;;
56037;SDS011;41907;47.848;9.000;2022-09-13T10:45:58;5.57;;;1.80;;
56037;SDS011;41907;47.848;9.000;2022-09-13T10:48:27;1.63;;;1.25;;
56037;SDS011;41907;47.848;9.000;2022-09-13T10:51:05;2.22;;;1.80;;
56037;SDS011;41907;47.848;9.000;2022-09-13T10:53:36;4.68;;;2.50;;
56037;SDS011;41907;47.848;9.000;2022-09-13T10:58:43;3.45;;;2.22;;
56037;SDS011;41907;47.848;9.000;2022-09-13T11:01:15;7.72;;;4.40;;
56037;SDS011;41907;47.848;9.000;2022-09-13T11:06:41;6.78;;;4.15;;
56037;SDS011;41907;47.848;9.000;2022-09-13T11:09:17;3.92;;;2.22;;
56037;SDS011;41907;47.848;9.000;2022-09-13T11:20:08;3.40;;;1.60;;
56037;SDS011;41907;47.848;9.000;2022-09-13T11:31:41;2.88;;;1.75;;
56037;SDS011;41907;47.848;9.000;2022-09-13T11:40:00;2.95;;;1.70;;
56037;SDS011;41907;47.848;9.000;2022-09-13T11:56:14;6.85;;;3.42;;
56037;SDS011;41907;47.848;9.000;2022-09-13T12:01:35;3.63;;;1.85;;
56037;SDS011;41907;47.848;9.000;2022-09-13T12:04:18;2.80;;;1.70;;
56037;SDS011;41907;47.848;9.000;2022-09-13T12:06:52;2.42;;;1.50;;
56037;SDS011;41907;47.848;9.000;2022-09-13T12:09:25;2.03;;;1.75;;
56037;SDS011;41907;47.848;9.000;2022-09-13T12:12:11;6.22;;;1.40;;
56037;SDS011;41907;47.848;9.000;2022-09-13T12:14:43;1.95;;;1.20;;
56037;SDS011;41907;47.848;9.000;2022-09-13T12:17:24;3.55;;;1.38;;
56037;SDS011;41907;47.848;9.000;2022-09-13T12:19:53;4.15;;;1.48;;
56037;SDS011;41907;47.848;9.000;2022-09-13T12:22:22;1.02;;;0.93;;
56037;SDS011;41907;47.848;9.000;2022-09-13T12:24:52;1.38;;;1.08;;
56037;SDS011;41907;47.848;9.000;2022-09-13T12:29:49;1.30;;;1.20;;
56037;SDS011;41907;47.848;9.000;2022-09-13T12:32:17;4.13;;;1.63;;
56037;SDS011;41907;47.848;9.000;2022-09-13T12:34:54;2.55;;;1.58;;
56037;SDS011;41907;47.848;9.000;2022-09-13T12:37:47;1.70;;;1.23;;
56037;SDS011;41907;47.848;9.000;2022-09-13T12:40:30;11.43;;;1.95;;
56037;SDS011;41907;47.848;9.000;2022-09-13T12:48:57;3.17;;;1.20;;
56037;SDS011;41907;47.848;9.000;2022-09-13T13:02:27;1.92;;;0.70;;
56037;SDS011;41907;47.848;9.000;2022-09-13T13:05:06;0.77;;;0.70;;
56037;SDS011;41907;47.848;9.000;2022-09-13T13:08:02;2.22;;;0.70;;
56037;SDS011;41907;47.848;9.000;2022-09-13T13:13:13;1.92;;;0.85;;
56037;SDS011;41907;47.848;9.000;2022-09-13T13:18:22;1.47;;;0.80;;
56037;SDS011;41907;47.848;9.000;2022-09-13T13:23:35;1.42;;;1.30;;
56037;SDS011;41907;47.848;9.000;2022-09-13T13:28:50;1.35;;;0.60;;
56037;SDS011;41907;47.848;9.000;2022-09-13T13:36:23;0.82;;;0.73;;
56037;SDS011;41907;47.848;9.000;2022-09-13T13:38:59;0.98;;;0.70;;
56037;SDS011;41907;47.848;9.000;2022-09-13T13:44:01;0.82;;;0.70;;
56037;SDS011;41907;47.848;9.000;2022-09-13T13:46:46;1.55;;;0.80;;
56037;SDS011;41907;47.848;9.000;2022-09-13T13:54:31;0.60;;;0.60;;
56037;SDS011;41907;47.848;9.000;2022-09-13T14:05:27;3.08;;;0.95;;
56037;SDS011;41907;47.848;9.000;2022-09-13T14:13:37;1.90;;;1.27;;
56037;SDS011;41907;47.848;9.000;2022-09-13T14:21:33;1.45;;;0.80;;
56037;SDS011;41907;47.848;9.000;2022-09-13T14:26:48;1.42;;;1.20;;
56037;SDS011;41907;47.848;9.000;2022-09-13T14:29:20;1.15;;;0.80;;
56037;SDS011;41907;47.848;9.000;2022-09-13T14:31:47;1.77;;;1.45;;
56037;SDS011;41907;47.848;9.000;2022-09-13T14:34:26;1.77;;;1.10;;
56037;SDS011;41907;47.848;9.000;2022-09-13T14:36:53;2.78;;;1.63;;
56037;SDS011;41907;47.848;9.000;2022-09-13T14:39:21;1.65;;;1.20;;
56037;SDS011;41907;47.848;9.000;2022-09-13T14:41:46;2.30;;;1.85;;
56037;SDS011;41907;47.848;9.000;2022-09-13T14:44:13;2.15;;;1.25;;
56037;SDS011;41907;47.848;9.000;2022-09-13T14:46:46;1.00;;;0.90;;
56037;SDS011;41907;47.848;9.000;2022-09-13T14:49:25;1.70;;;0.70;;
56037;SDS011;41907;47.848;9.000;2022-09-13T14:52:01;1.15;;;0.82;;
56037;SDS011;41907;47.848;9.000;2022-09-13T14:57:04;8.48;;;5.90;;
56037;SDS011;41907;47.848;9.000;2022-09-13T14:59:46;3.38;;;2.38;;
56037;SDS011;41907;47.848;9.000;2022-09-13T15:02:18;3.00;;;2.00;;
56037;SDS011;41907;47.848;9.000;2022-09-13T15:04:50;1.98;;;1.10;;
56037;SDS011;41907;47.848;9.000;2022-09-13T15:07:31;2.75;;;1.30;;
56037;SDS011;41907;47.848;9.000;2022-09-13T15:12:36;1.63;;;0.80;;
56037;SDS011;41907;47.848;9.000;2022-09-13T15:15:44;1.63;;;0.80;;
56037;SDS011;41907;47.848;9.000;2022-09-13T15:17:54;0.80;;;0.80;;
56037;SDS011;41907;47.848;9.000;2022-09-13T15:20:24;0.65;;;0.65;;
56037;SDS011;41907;47.848;9.000;2022-09-13T15:22:51;1.00;;;0.90;;
56037;SDS011;41907;47.848;9.000;2022-09-13T15:25:25;0.73;;;0.73;;
56037;SDS011;41907;47.848;9.000;2022-09-13T15:27:52;0.73;;;0.73;;
56037;SDS011;41907;47.848;9.000;2022-09-13T15:30:27;1.27;;;0.98;;
56037;SDS011;41907;47.848;9.000;2022-09-13T15:35:38;1.52;;;0.85;;
56037;SDS011;41907;47.848;9.000;2022-09-13T15:41:10;0.77;;;0.70;;
56037;SDS011;41907;47.848;9.000;2022-09-13T15:43:38;0.88;;;0.85;;
56037;SDS011;41907;47.848;9.000;2022-09-13T15:46:04;1.10;;;0.98;;
56037;SDS011;41907;47.848;9.000;2022-09-13T15:48:34;0.73;;;0.73;;
56037;SDS011;41907;47.848;9.000;2022-09-13T15:51:04;1.58;;;1.15;;
56037;SDS011;41907;47.848;9.000;2022-09-13T15:53:35;1.17;;;1.00;;
56037;SDS011;41907;47.848;9.000;2022-09-13T15:56:03;1.58;;;1.02;;
56037;SDS011;41907;47.848;9.000;2022-09-13T15:58:29;0.80;;;0.80;;
56037;SDS011;41907;47.848;9.000;2022-09-13T16:00:55;1.13;;;1.00;;
56037;SDS011;41907;47.848;9.000;2022-09-13T16:03:20;2.25;;;0.98;;
56037;SDS011;41907;47.848;9.000;2022-09-13T16:05:45;0.98;;;0.95;;
56037;SDS011;41907;47.848;9.000;2022-09-13T16:08:11;1.63;;;1.52;;
56037;SDS011;41907;47.848;9.000;2022-09-13T16:10:36;1.50;;;1.40;;
56037;SDS011;41907;47.848;9.000;2022-09-13T16:13:02;3.20;;;1.40;;
56037;SDS011;41907;47.848;9.000;2022-09-13T16:15:28;4.40;;;2.42;;
56037;SDS011;41907;47.848;9.000;2022-09-13T16:17:53;1.40;;;1.30;;
56037;SDS011;41907;47.848;9.000;2022-09-13T16:20:19;1.35;;;1.20;;
56037;SDS011;41907;47.848;9.000;2022-09-13T16:22:44;2.70;;;1.23;;
56037;SDS011;41907;47.848;9.000;2022-09-13T16:25:13;2.15;;;1.20;;
56037;SDS011;41907;47.848;9.000;2022-09-13T16:27:42;4.60;;;1.13;;
56037;SDS011;41907;47.848;9.000;2022-09-13T16:30:12;2.17;;;1.67;;
56037;SDS011;41907;47.848;9.000;2022-09-13T16:32:39;2.45;;;1.20;;
56037;SDS011;41907;47.848;9.000;2022-09-13T16:35:05;1.75;;;0.75;;
56037;SDS011;41907;47.848;9.000;2022-09-13T16:37:31;1.08;;;0.98;;
56037;SDS011;41907;47.848;9.000;2022-09-13T16:39:57;1.38;;;0.82;;
56037;SDS011;41907;47.848;9.000;2022-09-13T16:42:23;1.08;;;0.80;;
56037;SDS011;41907;47.848;9.000;2022-09-13T16:44:48;0.93;;;0.77;;
56037;SDS011;41907;47.848;9.000;2022-09-13T16:47:14;1.02;;;0.90;;
56037;SDS011;41907;47.848;9.000;2022-09-13T16:49:40;0.90;;;0.88;;
56037;SDS011;41907;47.848;9.000;2022-09-13T16:52:06;1.35;;;1.17;;
56037;SDS011;41907;47.848;9.000;2022-09-13T16:54:33;1.27;;;1.00;;
56037;SDS011;41907;47.848;9.000;2022-09-13T16:56:59;1.30;;;1.00;;
56037;SDS011;41907;47.848;9.000;2022-09-13T16:59:25;1.25;;;1.15;;
56037;SDS011;41907;47.848;9.000;2022-09-13T17:01:51;1.70;;;1.17;;
56037;SDS011;41907;47.848;9.000;2022-09-13T17:04:17;1.30;;;1.23;;
56037;SDS011;41907;47.848;9.000;2022-09-13T17:06:42;2.67;;;1.13;;
56037;SDS011;41907;47.848;9.000;2022-09-13T17:09:08;6.18;;;1.63;;
56037;SDS011;41907;47.848;9.000;2022-09-13T17:11:38;3.88;;;1.80;;
56037;SDS011;41907;47.848;9.000;2022-09-13T17:14:05;4.35;;;2.10;;
56037;SDS011;41907;47.848;9.000;2022-09-13T17:16:37;4.72;;;2.70;;
56037;SDS011;41907;47.848;9.000;2022-09-13T17:19:06;3.85;;;2.40;;
56037;SDS011;41907;47.848;9.000;2022-09-13T17:21:34;4.43;;;2.88;;
56037;SDS011;41907;47.848;9.000;2022-09-13T17:24:00;5.72;;;2.97;;
56037;SDS011;41907;47.848;9.000;2022-09-13T17:26:25;4.38;;;2.90;;
56037;SDS011;41907;47.848;9.000;2022-09-13T17:28:51;2.42;;;2.22;;
56037;SDS011;41907;47.848;9.000;2022-09-13T17:31:17;3.33;;;2.38;;
56037;SDS011;41907;47.848;9.000;2022-09-13T17:33:43;2.67;;;1.98;;
56037;SDS011;41907;47.848;9.000;2022-09-13T17:36:09;2.78;;;2.10;;
56037;SDS011;41907;47.848;9.000;2022-09-13T17:38:37;5.93;;;2.90;;
56037;SDS011;41907;47.848;9.000;2022-09-13T17:41:05;1.55;;;1.45;;
56037;SDS011;41907;47.848;9.000;2022-09-13T17:43:35;1.63;;;1.52;;
56037;SDS011;41907;47.848;9.000;2022-09-13T17:46:03;1.30;;;1.17;;
56037;SDS011;41907;47.848;9.000;2022-09-13T17:48:29;1.85;;;1.35;;
56037;SDS011;41907;47.848;9.000;2022-09-13T17:50:59;1.63;;;1.38;;
56037;SDS011;41907;47.848;9.000;2022-09-13T17:53:36;2.08;;;1.42;;
56037;SDS011;41907;47.848;9.000;2022-09-13T17:56:03;1.75;;;1.40;;
56037;SDS011;41907;47.848;9.000;2022-09-13T17:58:29;6.93;;;2.03;;
56037;SDS011;41907;47.848;9.000;2022-09-13T18:01:05;2.95;;;1.88;;
56037;SDS011;41907;47.848;9.000;2022-09-13T18:03:32;2.00;;;1.52;;
56037;SDS011;41907;47.848;9.000;2022-09-13T18:05:58;2.55;;;1.67;;
56037;SDS011;41907;47.848;9.000;2022-09-13T18:08:25;1.77;;;1.48;;
56037;SDS011;41907;47.848;9.000;2022-09-13T18:10:51;3.58;;;1.52;;
56037;SDS011;41907;47.848;9.000;2022-09-13T18:13:17;2.00;;;1.30;;
56037;SDS011;41907;47.848;9.000;2022-09-13T18:15:43;2.65;;;1.42;;
56037;SDS011;41907;47.848;9.000;2022-09-13T18:18:10;1.98;;;1.77;;
56037;SDS011;41907;47.848;9.000;2022-09-13T18:20:36;2.45;;;1.50;;
56037;SDS011;41907;47.848;9.000;2022-09-13T18:23:01;1.90;;;1.70;;
56037;SDS011;41907;47.848;9.000;2022-09-13T18:25:27;4.50;;;1.70;;
56037;SDS011;41907;47.848;9.000;2022-09-13T18:27:52;2.53;;;1.80;;
56037;SDS011;41907;47.848;9.000;2022-09-13T18:30:17;3.92;;;1.80;;
56037;SDS011;41907;47.848;9.000;2022-09-13T18:32:43;2.22;;;1.80;;
56037;SDS011;41907;47.848;9.000;2022-09-13T18:35:08;8.77;;;2.20;;
56037;SDS011;41907;47.848;9.000;2022-09-13T18:37:33;3.75;;;1.70;;
56037;SDS011;41907;47.848;9.000;2022-09-13T18:39:59;2.28;;;1.70;;
56037;SDS011;41907;47.848;9.000;2022-09-13T18:42:24;4.22;;;1.63;;
56037;SDS011;41907;47.848;9.000;2022-09-13T18:44:50;11.70;;;2.00;;
56037;SDS011;41907;47.848;9.000;2022-09-13T18:47:18;2.13;;;1.40;;
56037;SDS011;41907;47.848;9.000;2022-09-13T18:49:44;2.00;;;1.80;;
56037;SDS011;41907;47.848;9.000;2022-09-13T18:52:10;1.42;;;1.33;;